sensor_id;sensor_type;location;lat;lon;timestamp;temperature;humidity
30628;DHT22;17394;50.890;4.724;2023-02-18T00:00:20;10.90;99.90
30628;DHT22;17394;50.890;4.724;2023-02-18T00:02:48;10.90;99.90
30628;DHT22;17394;50.890;4.724;2023-02-18T00:05:14;10.90;99.90
30628;DHT22;17394;50.890;4.724;2023-02-18T00:07:40;10.90;99.90
30628;DHT22;17394;50.890;4.724;2023-02-18T00:10:07;10.90;99.90
30628;DHT22;17394;50.890;4.724;2023-02-18T00:12:33;10.90;99.90
30628;DHT22;17394;50.890;4.724;2023-02-18T00:14:59;10.90;99.90
30628;DHT22;17394;50.890;4.724;2023-02-18T00:17:24;10.90;99.90
30628;DHT22;17394;50.890;4.724;2023-02-18T00:19:50;10.90;99.90
30628;DHT22;17394;50.890;4.724;2023-02-18T00:22:16;10.90;99.90
30628;DHT22;17394;50.890;4.724;2023-02-18T00:24:41;10.90;99.90
30628;DHT22;17394;50.890;4.724;2023-02-18T00:27:07;10.90;99.90
30628;DHT22;17394;50.890;4.724;2023-02-18T00:29:33;10.90;99.90
30628;DHT22;17394;50.890;4.724;2023-02-18T00:31:58;10.90;99.90
30628;DHT22;17394;50.890;4.724;2023-02-18T00:34:24;10.90;99.90
30628;DHT22;17394;50.890;4.724;2023-02-18T00:36:50;10.90;99.90
30628;DHT22;17394;50.890;4.724;2023-02-18T00:39:15;10.90;99.90
30628;DHT22;17394;50.890;4.724;2023-02-18T00:41:41;10.90;99.90
30628;DHT22;17394;50.890;4.724;2023-02-18T00:44:07;10.90;99.90
30628;DHT22;17394;50.890;4.724;2023-02-18T00:46:33;10.90;99.90
30628;DHT22;17394;50.890;4.724;2023-02-18T00:48:59;10.90;99.90
30628;DHT22;17394;50.890;4.724;2023-02-18T00:51:24;10.90;99.90
30628;DHT22;17394;50.890;4.724;2023-02-18T00:53:50;10.90;99.90
30628;DHT22;17394;50.890;4.724;2023-02-18T00:56:15;10.90;99.90
30628;DHT22;17394;50.890;4.724;2023-02-18T00:58:41;10.90;99.90
30628;DHT22;17394;50.890;4.724;2023-02-18T01:01:07;11.00;99.90
30628;DHT22;17394;50.890;4.724;2023-02-18T01:03:34;11.00;99.90
30628;DHT22;17394;50.890;4.724;2023-02-18T01:05:59;11.00;99.90
30628;DHT22;17394;50.890;4.724;2023-02-18T01:08:25;11.00;99.90
30628;DHT22;17394;50.890;4.724;2023-02-18T01:10:55;11.00;99.90
30628;DHT22;17394;50.890;4.724;2023-02-18T01:13:21;11.00;99.90
30628;DHT22;17394;50.890;4.724;2023-02-18T01:15:47;10.90;99.90
30628;DHT22;17394;50.890;4.724;2023-02-18T01:18:13;10.90;99.90
30628;DHT22;17394;50.890;4.724;2023-02-18T01:20:40;11.00;99.90
30628;DHT22;17394;50.890;4.724;2023-02-18T01:23:05;11.00;99.90
30628;DHT22;17394;50.890;4.724;2023-02-18T01:25:31;11.00;99.90
30628;DHT22;17394;50.890;4.724;2023-02-18T01:27:57;11.00;99.90
30628;DHT22;17394;50.890;4.724;2023-02-18T01:30:23;10.90;99.90
30628;DHT22;17394;50.890;4.724;2023-02-18T01:32:48;10.90;99.90
30628;DHT22;17394;50.890;4.724;2023-02-18T01:35:15;10.90;99.90
30628;DHT22;17394;50.890;4.724;2023-02-18T01:37:40;10.90;99.90
30628;DHT22;17394;50.890;4.724;2023-02-18T01:40:07;10.90;99.90
30628;DHT22;17394;50.890;4.724;2023-02-18T01:42:32;10.80;99.90
30628;DHT22;17394;50.890;4.724;2023-02-18T01:47:42;10.80;99.90
30628;DHT22;17394;50.890;4.724;2023-02-18T01:50:08;10.70;99.90
30628;DHT22;17394;50.890;4.724;2023-02-18T01:52:34;10.70;99.90
30628;DHT22;17394;50.890;4.724;2023-02-18T01:54:59;10.70;99.90
30628;DHT22;17394;50.890;4.724;2023-02-18T01:57:35;10.60;99.90
30628;DHT22;17394;50.890;4.724;2023-02-18T02:00:19;10.60;99.90
30628;DHT22;17394;50.890;4.724;2023-02-18T02:02:50;10.60;99.90
30628;DHT22;17394;50.890;4.724;2023-02-18T02:05:16;10.60;99.90
30628;DHT22;17394;50.890;4.724;2023-02-18T02:07:42;10.60;99.90
30628;DHT22;17394;50.890;4.724;2023-02-18T02:10:09;10.60;99.90
30628;DHT22;17394;50.890;4.724;2023-02-18T02:35:19;10.60;99.90
30628;DHT22;17394;50.890;4.724;2023-02-18T02:45:17;10.60;99.90
30628;DHT22;17394;50.890;4.724;2023-02-18T02:47:48;10.60;99.90
30628;DHT22;17394;50.890;4.724;2023-02-18T02:52:49;10.60;99.90
30628;DHT22;17394;50.890;4.724;2023-02-18T02:55:16;10.60;99.90
30628;DHT22;17394;50.890;4.724;2023-02-18T02:57:43;10.60;99.90
30628;DHT22;17394;50.890;4.724;2023-02-18T03:00:10;10.60;99.90
30628;DHT22;17394;50.890;4.724;2023-02-18T03:02:39;10.60;99.90
30628;DHT22;17394;50.890;4.724;2023-02-18T03:10:35;10.60;99.90
30628;DHT22;17394;50.890;4.724;2023-02-18T03:15:39;10.50;99.90
30628;DHT22;17394;50.890;4.724;2023-02-18T03:18:13;10.50;99.90
30628;DHT22;17394;50.890;4.724;2023-02-18T03:20:42;10.50;99.90
30628;DHT22;17394;50.890;4.724;2023-02-18T03:23:12;10.50;99.90
30628;DHT22;17394;50.890;4.724;2023-02-18T03:25:41;10.50;99.90
30628;DHT22;17394;50.890;4.724;2023-02-18T03:28:11;10.40;99.90
30628;DHT22;17394;50.890;4.724;2023-02-18T03:33:04;10.40;99.90
30628;DHT22;17394;50.890;4.724;2023-02-18T03:35:32;10.40;99.90
30628;DHT22;17394;50.890;4.724;2023-02-18T03:38:05;10.40;99.90
30628;DHT22;17394;50.890;4.724;2023-02-18T03:40:33;10.30;99.90
30628;DHT22;17394;50.890;4.724;2023-02-18T03:42:59;10.30;99.90
30628;DHT22;17394;50.890;4.724;2023-02-18T03:45:25;10.30;99.90
30628;DHT22;17394;50.890;4.724;2023-02-18T03:47:51;10.30;99.90
30628;DHT22;17394;50.890;4.724;2023-02-18T03:50:17;10.30;99.90
30628;DHT22;17394;50.890;4.724;2023-02-18T03:52:42;10.30;99.90
30628;DHT22;17394;50.890;4.724;2023-02-18T03:55:08;10.00;99.90
30628;DHT22;17394;50.890;4.724;2023-02-18T03:57:34;10.30;99.90
30628;DHT22;17394;50.890;4.724;2023-02-18T04:00:00;10.20;99.90
30628;DHT22;17394;50.890;4.724;2023-02-18T04:02:25;10.20;99.90
30628;DHT22;17394;50.890;4.724;2023-02-18T04:04:51;10.20;99.90
30628;DHT22;17394;50.890;4.724;2023-02-18T04:07:17;10.20;99.90
30628;DHT22;17394;50.890;4.724;2023-02-18T04:09:42;10.20;99.90
30628;DHT22;17394;50.890;4.724;2023-02-18T04:12:08;10.20;99.90
30628;DHT22;17394;50.890;4.724;2023-02-18T04:14:33;10.20;99.90
30628;DHT22;17394;50.890;4.724;2023-02-18T04:16:59;10.20;99.90
30628;DHT22;17394;50.890;4.724;2023-02-18T04:19:25;10.20;99.90
30628;DHT22;17394;50.890;4.724;2023-02-18T04:21:51;10.20;99.90
30628;DHT22;17394;50.890;4.724;2023-02-18T04:24:16;10.20;99.90
30628;DHT22;17394;50.890;4.724;2023-02-18T04:26:42;10.20;99.90
30628;DHT22;17394;50.890;4.724;2023-02-18T04:29:08;10.20;99.90
30628;DHT22;17394;50.890;4.724;2023-02-18T04:31:33;10.20;99.90
30628;DHT22;17394;50.890;4.724;2023-02-18T04:33:59;10.20;99.90
30628;DHT22;17394;50.890;4.724;2023-02-18T04:36:25;10.10;99.90
30628;DHT22;17394;50.890;4.724;2023-02-18T04:38:50;10.10;99.90
30628;DHT22;17394;50.890;4.724;2023-02-18T04:41:16;10.10;99.90
30628;DHT22;17394;50.890;4.724;2023-02-18T04:43:42;10.10;99.90
30628;DHT22;17394;50.890;4.724;2023-02-18T04:46:07;10.10;99.90
30628;DHT22;17394;50.890;4.724;2023-02-18T04:48:33;10.10;99.90
30628;DHT22;17394;50.890;4.724;2023-02-18T04:50:59;10.10;99.90
30628;DHT22;17394;50.890;4.724;2023-02-18T04:53:25;10.10;99.90
30628;DHT22;17394;50.890;4.724;2023-02-18T04:55:51;10.10;99.90
30628;DHT22;17394;50.890;4.724;2023-02-18T04:58:17;10.00;99.90
30628;DHT22;17394;50.890;4.724;2023-02-18T05:00:43;10.10;99.90
30628;DHT22;17394;50.890;4.724;2023-02-18T05:03:08;10.00;99.90
30628;DHT22;17394;50.890;4.724;2023-02-18T05:05:34;10.00;99.90
30628;DHT22;17394;50.890;4.724;2023-02-18T05:08:00;10.00;99.90
30628;DHT22;17394;50.890;4.724;2023-02-18T05:10:26;10.00;99.90
30628;DHT22;17394;50.890;4.724;2023-02-18T05:12:52;10.00;99.90
30628;DHT22;17394;50.890;4.724;2023-02-18T05:15:17;10.00;99.90
30628;DHT22;17394;50.890;4.724;2023-02-18T05:17:43;10.00;99.90
30628;DHT22;17394;50.890;4.724;2023-02-18T05:20:09;10.00;99.90
30628;DHT22;17394;50.890;4.724;2023-02-18T05:22:34;10.00;99.90
30628;DHT22;17394;50.890;4.724;2023-02-18T05:25:00;10.00;99.90
30628;DHT22;17394;50.890;4.724;2023-02-18T05:27:26;10.00;99.90
30628;DHT22;17394;50.890;4.724;2023-02-18T05:29:51;10.00;99.90
30628;DHT22;17394;50.890;4.724;2023-02-18T05:32:17;10.00;99.90
30628;DHT22;17394;50.890;4.724;2023-02-18T05:34:42;10.00;99.90
30628;DHT22;17394;50.890;4.724;2023-02-18T05:37:08;9.90;99.90
30628;DHT22;17394;50.890;4.724;2023-02-18T05:39:34;9.90;99.90
30628;DHT22;17394;50.890;4.724;2023-02-18T05:41:59;10.00;99.90
30628;DHT22;17394;50.890;4.724;2023-02-18T05:44:25;9.90;99.90
30628;DHT22;17394;50.890;4.724;2023-02-18T05:46:59;9.90;99.90
30628;DHT22;17394;50.890;4.724;2023-02-18T05:49:24;9.90;99.90
30628;DHT22;17394;50.890;4.724;2023-02-18T05:51:50;9.90;99.90
30628;DHT22;17394;50.890;4.724;2023-02-18T05:54:16;9.90;99.90
30628;DHT22;17394;50.890;4.724;2023-02-18T05:56:41;9.90;99.90
30628;DHT22;17394;50.890;4.724;2023-02-18T05:59:07;9.80;99.90
30628;DHT22;17394;50.890;4.724;2023-02-18T06:01:33;9.80;99.90
30628;DHT22;17394;50.890;4.724;2023-02-18T06:03:58;9.80;99.90
30628;DHT22;17394;50.890;4.724;2023-02-18T06:06:24;9.80;99.90
30628;DHT22;17394;50.890;4.724;2023-02-18T06:08:50;9.70;99.90
30628;DHT22;17394;50.890;4.724;2023-02-18T06:11:15;9.70;99.90
30628;DHT22;17394;50.890;4.724;2023-02-18T06:13:41;9.70;99.90
30628;DHT22;17394;50.890;4.724;2023-02-18T06:16:06;9.60;99.90
30628;DHT22;17394;50.890;4.724;2023-02-18T06:18:32;9.60;99.90
30628;DHT22;17394;50.890;4.724;2023-02-18T06:20:58;9.60;99.90
30628;DHT22;17394;50.890;4.724;2023-02-18T06:23:23;9.60;99.90
30628;DHT22;17394;50.890;4.724;2023-02-18T06:25:49;9.60;99.90
30628;DHT22;17394;50.890;4.724;2023-02-18T06:28:15;9.60;99.90
30628;DHT22;17394;50.890;4.724;2023-02-18T06:30:41;9.60;99.90
30628;DHT22;17394;50.890;4.724;2023-02-18T06:33:07;9.60;99.90
30628;DHT22;17394;50.890;4.724;2023-02-18T06:35:33;9.60;99.90
30628;DHT22;17394;50.890;4.724;2023-02-18T06:37:59;9.60;99.90
30628;DHT22;17394;50.890;4.724;2023-02-18T06:40:25;9.60;99.90
30628;DHT22;17394;50.890;4.724;2023-02-18T06:42:50;9.60;99.90
30628;DHT22;17394;50.890;4.724;2023-02-18T06:45:16;9.70;99.90
30628;DHT22;17394;50.890;4.724;2023-02-18T06:47:42;9.70;99.90
30628;DHT22;17394;50.890;4.724;2023-02-18T06:50:07;9.80;99.90
30628;DHT22;17394;50.890;4.724;2023-02-18T06:52:33;9.80;99.90
30628;DHT22;17394;50.890;4.724;2023-02-18T06:54:59;9.80;99.90
30628;DHT22;17394;50.890;4.724;2023-02-18T06:57:25;9.80;99.90
30628;DHT22;17394;50.890;4.724;2023-02-18T06:59:50;9.80;99.90
30628;DHT22;17394;50.890;4.724;2023-02-18T07:02:16;9.80;99.90
30628;DHT22;17394;50.890;4.724;2023-02-18T07:04:41;9.80;99.90
30628;DHT22;17394;50.890;4.724;2023-02-18T07:07:07;9.80;99.90
30628;DHT22;17394;50.890;4.724;2023-02-18T07:09:33;9.80;99.90
30628;DHT22;17394;50.890;4.724;2023-02-18T07:11:58;9.70;99.90
30628;DHT22;17394;50.890;4.724;2023-02-18T07:14:24;9.70;99.90
30628;DHT22;17394;50.890;4.724;2023-02-18T07:16:51;9.70;99.90
30628;DHT22;17394;50.890;4.724;2023-02-18T07:19:17;9.80;99.90
30628;DHT22;17394;50.890;4.724;2023-02-18T07:21:43;9.80;99.90
30628;DHT22;17394;50.890;4.724;2023-02-18T07:24:08;9.80;99.90
30628;DHT22;17394;50.890;4.724;2023-02-18T07:26:34;9.80;99.90
30628;DHT22;17394;50.890;4.724;2023-02-18T07:28:59;9.80;99.90
30628;DHT22;17394;50.890;4.724;2023-02-18T07:31:25;9.80;99.90
30628;DHT22;17394;50.890;4.724;2023-02-18T07:33:51;9.80;99.90
30628;DHT22;17394;50.890;4.724;2023-02-18T07:36:16;9.80;99.90
30628;DHT22;17394;50.890;4.724;2023-02-18T07:38:42;9.90;99.90
30628;DHT22;17394;50.890;4.724;2023-02-18T07:41:19;9.90;99.90
30628;DHT22;17394;50.890;4.724;2023-02-18T07:43:44;9.90;99.90
30628;DHT22;17394;50.890;4.724;2023-02-18T07:46:10;9.90;99.90
30628;DHT22;17394;50.890;4.724;2023-02-18T07:48:36;9.90;99.90
30628;DHT22;17394;50.890;4.724;2023-02-18T07:51:05;9.90;99.90
30628;DHT22;17394;50.890;4.724;2023-02-18T07:53:31;9.90;99.90
30628;DHT22;17394;50.890;4.724;2023-02-18T07:55:57;10.00;99.90
30628;DHT22;17394;50.890;4.724;2023-02-18T07:58:25;10.00;99.90
30628;DHT22;17394;50.890;4.724;2023-02-18T08:00:51;10.00;99.90
30628;DHT22;17394;50.890;4.724;2023-02-18T08:03:19;10.00;99.90
30628;DHT22;17394;50.890;4.724;2023-02-18T08:05:46;10.00;99.90
30628;DHT22;17394;50.890;4.724;2023-02-18T08:08:13;10.00;99.90
30628;DHT22;17394;50.890;4.724;2023-02-18T08:10:39;10.00;99.90
30628;DHT22;17394;50.890;4.724;2023-02-18T08:13:05;10.00;99.90
30628;DHT22;17394;50.890;4.724;2023-02-18T08:15:30;10.10;99.90
30628;DHT22;17394;50.890;4.724;2023-02-18T08:17:56;10.20;99.90
30628;DHT22;17394;50.890;4.724;2023-02-18T08:20:22;10.20;99.90
30628;DHT22;17394;50.890;4.724;2023-02-18T08:22:47;10.20;99.90
30628;DHT22;17394;50.890;4.724;2023-02-18T08:25:13;10.30;99.90
30628;DHT22;17394;50.890;4.724;2023-02-18T08:27:39;10.30;99.90
30628;DHT22;17394;50.890;4.724;2023-02-18T08:30:04;10.30;99.90
30628;DHT22;17394;50.890;4.724;2023-02-18T08:32:30;10.30;99.90
30628;DHT22;17394;50.890;4.724;2023-02-18T08:34:56;10.30;99.90
30628;DHT22;17394;50.890;4.724;2023-02-18T08:37:21;10.30;99.90
30628;DHT22;17394;50.890;4.724;2023-02-18T08:39:48;10.40;99.90
30628;DHT22;17394;50.890;4.724;2023-02-18T08:42:14;10.40;99.90
30628;DHT22;17394;50.890;4.724;2023-02-18T08:44:39;10.40;99.90
30628;DHT22;17394;50.890;4.724;2023-02-18T08:47:05;10.50;99.90
30628;DHT22;17394;50.890;4.724;2023-02-18T08:49:31;10.50;99.90
30628;DHT22;17394;50.890;4.724;2023-02-18T08:51:56;10.60;99.90
30628;DHT22;17394;50.890;4.724;2023-02-18T08:54:22;10.60;99.90
30628;DHT22;17394;50.890;4.724;2023-02-18T08:56:48;10.60;99.90
30628;DHT22;17394;50.890;4.724;2023-02-18T08:59:13;10.70;99.90
30628;DHT22;17394;50.890;4.724;2023-02-18T09:01:39;10.70;99.90
30628;DHT22;17394;50.890;4.724;2023-02-18T09:04:05;10.70;99.90
30628;DHT22;17394;50.890;4.724;2023-02-18T09:06:30;10.80;99.90
30628;DHT22;17394;50.890;4.724;2023-02-18T09:08:56;10.80;99.90
30628;DHT22;17394;50.890;4.724;2023-02-18T09:11:22;10.80;99.90
30628;DHT22;17394;50.890;4.724;2023-02-18T09:13:47;10.90;99.90
30628;DHT22;17394;50.890;4.724;2023-02-18T09:16:14;10.90;99.90
30628;DHT22;17394;50.890;4.724;2023-02-18T09:18:42;11.00;99.90
30628;DHT22;17394;50.890;4.724;2023-02-18T09:21:08;11.00;99.90
30628;DHT22;17394;50.890;4.724;2023-02-18T09:23:34;11.10;99.90
30628;DHT22;17394;50.890;4.724;2023-02-18T09:26:02;11.10;99.90
30628;DHT22;17394;50.890;4.724;2023-02-18T09:28:28;11.10;99.90
30628;DHT22;17394;50.890;4.724;2023-02-18T09:30:53;11.10;99.90
30628;DHT22;17394;50.890;4.724;2023-02-18T09:33:19;11.10;99.90
30628;DHT22;17394;50.890;4.724;2023-02-18T09:35:45;11.10;99.90
30628;DHT22;17394;50.890;4.724;2023-02-18T09:38:11;11.00;99.90
30628;DHT22;17394;50.890;4.724;2023-02-18T09:40:38;11.00;99.90
30628;DHT22;17394;50.890;4.724;2023-02-18T09:43:06;11.00;99.90
30628;DHT22;17394;50.890;4.724;2023-02-18T09:45:32;11.00;99.90
30628;DHT22;17394;50.890;4.724;2023-02-18T09:47:58;11.00;99.90
30628;DHT22;17394;50.890;4.724;2023-02-18T09:50:29;11.10;99.90
30628;DHT22;17394;50.890;4.724;2023-02-18T09:52:59;11.10;99.90
30628;DHT22;17394;50.890;4.724;2023-02-18T09:55:27;11.10;99.90
30628;DHT22;17394;50.890;4.724;2023-02-18T09:58:04;11.20;99.90
30628;DHT22;17394;50.890;4.724;2023-02-18T10:00:32;11.20;99.90
30628;DHT22;17394;50.890;4.724;2023-02-18T10:03:07;11.20;99.90
30628;DHT22;17394;50.890;4.724;2023-02-18T10:05:35;11.20;99.90
30628;DHT22;17394;50.890;4.724;2023-02-18T10:08:03;11.20;99.90
30628;DHT22;17394;50.890;4.724;2023-02-18T10:12:58;11.20;99.90
30628;DHT22;17394;50.890;4.724;2023-02-18T10:15:26;11.20;99.90
30628;DHT22;17394;50.890;4.724;2023-02-18T10:17:52;11.20;99.90
30628;DHT22;17394;50.890;4.724;2023-02-18T10:20:20;11.20;99.90
30628;DHT22;17394;50.890;4.724;2023-02-18T10:22:47;11.20;99.90
30628;DHT22;17394;50.890;4.724;2023-02-18T10:25:17;11.20;99.90
30628;DHT22;17394;50.890;4.724;2023-02-18T10:27:43;11.20;99.90
30628;DHT22;17394;50.890;4.724;2023-02-18T10:32:39;11.30;99.90
30628;DHT22;17394;50.890;4.724;2023-02-18T10:51:22;11.40;99.90
30628;DHT22;17394;50.890;4.724;2023-02-18T10:53:49;11.40;99.90
30628;DHT22;17394;50.890;4.724;2023-02-18T10:56:37;11.40;99.90
30628;DHT22;17394;50.890;4.724;2023-02-18T10:59:05;11.40;99.90
30628;DHT22;17394;50.890;4.724;2023-02-18T11:01:34;11.50;99.90
30628;DHT22;17394;50.890;4.724;2023-02-18T11:04:07;11.50;99.90
30628;DHT22;17394;50.890;4.724;2023-02-18T11:06:40;11.50;99.90
30628;DHT22;17394;50.890;4.724;2023-02-18T11:09:06;11.50;99.90
30628;DHT22;17394;50.890;4.724;2023-02-18T11:11:37;11.50;99.90
30628;DHT22;17394;50.890;4.724;2023-02-18T11:14:04;11.50;99.90
30628;DHT22;17394;50.890;4.724;2023-02-18T11:19:12;11.50;99.90
30628;DHT22;17394;50.890;4.724;2023-02-18T11:21:50;11.50;99.90
30628;DHT22;17394;50.890;4.724;2023-02-18T11:24:16;11.50;99.90
30628;DHT22;17394;50.890;4.724;2023-02-18T11:26:44;11.50;99.90
30628;DHT22;17394;50.890;4.724;2023-02-18T11:29:20;11.50;99.90
30628;DHT22;17394;50.890;4.724;2023-02-18T11:31:48;11.50;99.90
30628;DHT22;17394;50.890;4.724;2023-02-18T11:34:15;11.50;99.90
30628;DHT22;17394;50.890;4.724;2023-02-18T11:36:42;11.50;99.90
30628;DHT22;17394;50.890;4.724;2023-02-18T11:39:16;11.50;99.90
30628;DHT22;17394;50.890;4.724;2023-02-18T11:41:46;11.60;99.90
30628;DHT22;17394;50.890;4.724;2023-02-18T11:44:22;11.60;99.90
30628;DHT22;17394;50.890;4.724;2023-02-18T11:49:36;11.80;99.90
30628;DHT22;17394;50.890;4.724;2023-02-18T11:52:03;11.70;99.90
30628;DHT22;17394;50.890;4.724;2023-02-18T11:54:29;11.70;99.90
30628;DHT22;17394;50.890;4.724;2023-02-18T11:57:00;11.70;99.90
30628;DHT22;17394;50.890;4.724;2023-02-18T11:59:27;11.70;99.90
30628;DHT22;17394;50.890;4.724;2023-02-18T12:01:56;11.70;99.90
30628;DHT22;17394;50.890;4.724;2023-02-18T12:04:26;11.70;99.90
30628;DHT22;17394;50.890;4.724;2023-02-18T12:09:21;11.80;99.90
30628;DHT22;17394;50.890;4.724;2023-02-18T12:11:50;11.80;99.90
30628;DHT22;17394;50.890;4.724;2023-02-18T12:14:20;11.80;99.90
30628;DHT22;17394;50.890;4.724;2023-02-18T12:17:03;11.80;99.90
30628;DHT22;17394;50.890;4.724;2023-02-18T12:19:45;11.80;99.90
30628;DHT22;17394;50.890;4.724;2023-02-18T12:48:28;12.00;99.90
30628;DHT22;17394;50.890;4.724;2023-02-18T12:53:44;12.00;99.90
30628;DHT22;17394;50.890;4.724;2023-02-18T13:01:28;12.00;99.90
30628;DHT22;17394;50.890;4.724;2023-02-18T13:03:59;12.00;99.90
30628;DHT22;17394;50.890;4.724;2023-02-18T13:06:33;12.00;99.90
30628;DHT22;17394;50.890;4.724;2023-02-18T13:12:00;11.90;99.90
30628;DHT22;17394;50.890;4.724;2023-02-18T13:14:27;11.80;99.90
30628;DHT22;17394;50.890;4.724;2023-02-18T13:16:56;11.70;99.90
30628;DHT22;17394;50.890;4.724;2023-02-18T13:19:28;11.60;99.90
30628;DHT22;17394;50.890;4.724;2023-02-18T13:21:57;11.50;99.90
30628;DHT22;17394;50.890;4.724;2023-02-18T13:24:39;11.40;99.90
30628;DHT22;17394;50.890;4.724;2023-02-18T13:27:15;11.40;99.90
30628;DHT22;17394;50.890;4.724;2023-02-18T13:30:00;11.30;99.90
30628;DHT22;17394;50.890;4.724;2023-02-18T13:32:36;11.30;99.90
30628;DHT22;17394;50.890;4.724;2023-02-18T13:40:25;11.20;99.90
30628;DHT22;17394;50.890;4.724;2023-02-18T13:43:20;11.20;99.90
30628;DHT22;17394;50.890;4.724;2023-02-18T13:48:43;11.20;99.90
30628;DHT22;17394;50.890;4.724;2023-02-18T13:51:14;11.20;99.90
30628;DHT22;17394;50.890;4.724;2023-02-18T13:53:48;11.10;99.90
30628;DHT22;17394;50.890;4.724;2023-02-18T13:58:41;11.10;99.90
30628;DHT22;17394;50.890;4.724;2023-02-18T14:07:15;11.10;99.90
30628;DHT22;17394;50.890;4.724;2023-02-18T14:09:03;11.10;99.90
30628;DHT22;17394;50.890;4.724;2023-02-18T14:11:31;11.10;99.90
30628;DHT22;17394;50.890;4.724;2023-02-18T14:19:27;11.10;99.90
30628;DHT22;17394;50.890;4.724;2023-02-18T14:21:53;11.10;99.90
30628;DHT22;17394;50.890;4.724;2023-02-18T14:24:42;11.10;99.90
30628;DHT22;17394;50.890;4.724;2023-02-18T14:27:13;11.10;99.90
30628;DHT22;17394;50.890;4.724;2023-02-18T14:29:39;11.20;99.90
30628;DHT22;17394;50.890;4.724;2023-02-18T14:32:14;11.20;99.90
30628;DHT22;17394;50.890;4.724;2023-02-18T14:37:32;11.20;99.90
30628;DHT22;17394;50.890;4.724;2023-02-18T14:42:57;11.20;99.90
30628;DHT22;17394;50.890;4.724;2023-02-18T14:50:36;11.40;99.90
30628;DHT22;17394;50.890;4.724;2023-02-18T14:53:13;11.60;99.90
30628;DHT22;17394;50.890;4.724;2023-02-18T14:55:43;11.60;99.90
30628;DHT22;17394;50.890;4.724;2023-02-18T14:58:18;11.80;99.90
30628;DHT22;17394;50.890;4.724;2023-02-18T15:00:47;11.80;99.90
30628;DHT22;17394;50.890;4.724;2023-02-18T15:03:17;11.90;99.90
30628;DHT22;17394;50.890;4.724;2023-02-18T15:05:43;12.00;99.90
30628;DHT22;17394;50.890;4.724;2023-02-18T15:08:22;11.90;99.90
30628;DHT22;17394;50.890;4.724;2023-02-18T15:10:50;11.90;99.90
30628;DHT22;17394;50.890;4.724;2023-02-18T15:15:43;11.90;99.90
30628;DHT22;17394;50.890;4.724;2023-02-18T15:18:17;11.90;99.90
30628;DHT22;17394;50.890;4.724;2023-02-18T15:20:44;11.90;99.90
30628;DHT22;17394;50.890;4.724;2023-02-18T15:23:10;11.90;99.90
30628;DHT22;17394;50.890;4.724;2023-02-18T15:25:38;11.90;99.90
30628;DHT22;17394;50.890;4.724;2023-02-18T15:28:04;11.90;99.90
30628;DHT22;17394;50.890;4.724;2023-02-18T15:30:29;11.80;99.90
30628;DHT22;17394;50.890;4.724;2023-02-18T15:32:56;11.80;99.90
30628;DHT22;17394;50.890;4.724;2023-02-18T15:35:24;11.80;99.90
30628;DHT22;17394;50.890;4.724;2023-02-18T15:37:54;11.70;99.90
30628;DHT22;17394;50.890;4.724;2023-02-18T15:40:24;11.70;99.90
30628;DHT22;17394;50.890;4.724;2023-02-18T15:42:51;11.70;99.90
30628;DHT22;17394;50.890;4.724;2023-02-18T15:47:43;11.60;99.90
30628;DHT22;17394;50.890;4.724;2023-02-18T15:50:16;11.60;99.90
30628;DHT22;17394;50.890;4.724;2023-02-18T15:52:43;11.50;99.90
30628;DHT22;17394;50.890;4.724;2023-02-18T15:55:11;11.50;99.90
30628;DHT22;17394;50.890;4.724;2023-02-18T15:57:38;11.50;99.90
30628;DHT22;17394;50.890;4.724;2023-02-18T16:00:12;11.50;99.90
30628;DHT22;17394;50.890;4.724;2023-02-18T16:02:48;11.40;99.90
30628;DHT22;17394;50.890;4.724;2023-02-18T16:05:15;11.40;99.90
30628;DHT22;17394;50.890;4.724;2023-02-18T16:07:51;11.40;99.90
30628;DHT22;17394;50.890;4.724;2023-02-18T16:10:22;11.30;99.90
30628;DHT22;17394;50.890;4.724;2023-02-18T16:12:49;11.30;99.90
30628;DHT22;17394;50.890;4.724;2023-02-18T16:15:27;11.30;99.90
30628;DHT22;17394;50.890;4.724;2023-02-18T16:17:54;12.40;99.90
30628;DHT22;17394;50.890;4.724;2023-02-18T16:22:49;11.20;99.90
30628;DHT22;17394;50.890;4.724;2023-02-18T16:25:17;11.20;99.90
30628;DHT22;17394;50.890;4.724;2023-02-18T16:27:49;11.20;99.90
30628;DHT22;17394;50.890;4.724;2023-02-18T16:30:16;11.90;99.90
30628;DHT22;17394;50.890;4.724;2023-02-18T16:32:42;11.20;99.90
30628;DHT22;17394;50.890;4.724;2023-02-18T16:35:08;11.20;99.90
30628;DHT22;17394;50.890;4.724;2023-02-18T16:37:34;11.20;99.90
30628;DHT22;17394;50.890;4.724;2023-02-18T16:40:13;11.20;99.90
30628;DHT22;17394;50.890;4.724;2023-02-18T16:42:44;11.20;99.90
30628;DHT22;17394;50.890;4.724;2023-02-18T16:45:11;11.20;99.90
30628;DHT22;17394;50.890;4.724;2023-02-18T16:47:37;11.20;99.90
30628;DHT22;17394;50.890;4.724;2023-02-18T16:50:02;11.10;99.90
30628;DHT22;17394;50.890;4.724;2023-02-18T16:52:28;11.10;99.90
30628;DHT22;17394;50.890;4.724;2023-02-18T16:54:54;11.10;99.90
30628;DHT22;17394;50.890;4.724;2023-02-18T16:57:19;11.10;99.90
30628;DHT22;17394;50.890;4.724;2023-02-18T16:59:47;11.20;99.90
30628;DHT22;17394;50.890;4.724;2023-02-18T17:02:16;11.20;99.90
30628;DHT22;17394;50.890;4.724;2023-02-18T17:04:43;11.10;99.90
30628;DHT22;17394;50.890;4.724;2023-02-18T17:07:09;11.10;99.90
30628;DHT22;17394;50.890;4.724;2023-02-18T17:09:35;11.10;99.90
30628;DHT22;17394;50.890;4.724;2023-02-18T17:12:01;11.10;99.90
30628;DHT22;17394;50.890;4.724;2023-02-18T17:14:27;11.10;99.90
30628;DHT22;17394;50.890;4.724;2023-02-18T17:16:53;11.10;99.90
30628;DHT22;17394;50.890;4.724;2023-02-18T17:19:19;11.10;99.90
30628;DHT22;17394;50.890;4.724;2023-02-18T17:21:45;11.10;99.90
30628;DHT22;17394;50.890;4.724;2023-02-18T17:24:11;11.10;99.90
30628;DHT22;17394;50.890;4.724;2023-02-18T17:26:37;11.10;99.90
30628;DHT22;17394;50.890;4.724;2023-02-18T17:29:03;11.10;99.90
30628;DHT22;17394;50.890;4.724;2023-02-18T17:31:30;11.00;99.90
30628;DHT22;17394;50.890;4.724;2023-02-18T17:33:59;11.00;99.90
30628;DHT22;17394;50.890;4.724;2023-02-18T17:36:25;11.00;99.90
30628;DHT22;17394;50.890;4.724;2023-02-18T17:38:51;11.00;99.90
30628;DHT22;17394;50.890;4.724;2023-02-18T17:41:17;10.90;99.90
30628;DHT22;17394;50.890;4.724;2023-02-18T17:43:43;10.90;99.90
30628;DHT22;17394;50.890;4.724;2023-02-18T17:46:09;10.90;99.90
30628;DHT22;17394;50.890;4.724;2023-02-18T17:48:35;10.90;99.90
30628;DHT22;17394;50.890;4.724;2023-02-18T17:51:01;10.90;99.90
30628;DHT22;17394;50.890;4.724;2023-02-18T17:53:27;10.90;99.90
30628;DHT22;17394;50.890;4.724;2023-02-18T17:55:53;10.90;99.90
30628;DHT22;17394;50.890;4.724;2023-02-18T17:58:18;10.90;99.90
30628;DHT22;17394;50.890;4.724;2023-02-18T18:00:48;10.90;99.90
30628;DHT22;17394;50.890;4.724;2023-02-18T18:03:14;10.90;99.90
30628;DHT22;17394;50.890;4.724;2023-02-18T18:05:41;10.90;99.90